createdAt,value
2024-02-04T00:00:16.150Z,3.90
2024-02-04T00:02:45.816Z,3.90
2024-02-04T00:05:14.018Z,3.90
2024-02-04T00:07:42.132Z,3.90
2024-02-04T00:10:10.777Z,3.90
2024-02-04T00:12:39.021Z,3.90
2024-02-04T00:15:07.651Z,3.90
2024-02-04T00:17:35.810Z,3.90
2024-02-04T00:20:06.803Z,3.90
2024-02-04T00:22:35.832Z,3.90
2024-02-04T00:25:06.241Z,3.90
2024-02-04T00:27:35.016Z,3.90
2024-02-04T00:30:03.266Z,3.90
2024-02-04T00:32:31.432Z,3.80
2024-02-04T00:34:59.629Z,3.80
2024-02-04T00:37:29.319Z,3.80
2024-02-04T00:39:57.482Z,3.80
2024-02-04T00:42:25.627Z,3.80
2024-02-04T00:44:53.846Z,3.90
2024-02-04T00:47:21.924Z,3.90
2024-02-04T00:49:50.113Z,4.00
2024-02-04T00:52:18.351Z,3.90
2024-02-04T00:54:47.818Z,4.00
2024-02-04T00:57:15.951Z,3.90
2024-02-04T00:59:44.156Z,3.90
2024-02-04T01:02:12.355Z,4.00
2024-02-04T01:04:40.621Z,4.00
2024-02-04T01:07:08.779Z,4.00
2024-02-04T01:09:36.984Z,4.00
2024-02-04T01:12:06.938Z,4.00
2024-02-04T01:14:35.042Z,4.00
2024-02-04T01:17:03.370Z,4.10
2024-02-04T01:19:31.517Z,4.10
2024-02-04T01:22:00.098Z,4.10
2024-02-04T01:24:28.405Z,4.10
2024-02-04T01:26:56.681Z,4.10
2024-02-04T01:29:26.133Z,4.10
2024-02-04T01:31:54.216Z,4.10
2024-02-04T01:34:22.368Z,4.10
2024-02-04T01:36:50.643Z,4.00
2024-02-04T01:39:18.728Z,4.00
2024-02-04T01:41:47.074Z,3.90
2024-02-04T01:44:16.979Z,3.90
2024-02-04T01:46:46.884Z,3.90
2024-02-04T01:49:15.144Z,3.80
2024-02-04T01:51:43.935Z,3.80
2024-02-04T01:54:12.384Z,3.80
2024-02-04T01:56:40.701Z,3.70
2024-02-04T01:59:09.147Z,3.60
2024-02-04T02:01:37.423Z,3.60
2024-02-04T02:04:07.282Z,3.50
2024-02-04T02:06:36.622Z,3.60
2024-02-04T02:09:07.218Z,3.60
2024-02-04T02:11:42.290Z,3.60
2024-02-04T02:14:15.573Z,3.50
2024-02-04T02:16:46.165Z,3.50
2024-02-04T02:19:32.446Z,3.50
2024-02-04T02:22:08.816Z,3.50
2024-02-04T02:24:40.929Z,3.50
2024-02-04T02:27:09.777Z,3.40
2024-02-04T02:29:37.961Z,3.40
2024-02-04T02:32:06.978Z,3.30
2024-02-04T02:34:39.213Z,3.30
2024-02-04T02:37:16.870Z,3.30
2024-02-04T02:39:51.915Z,3.20
2024-02-04T02:42:22.281Z,3.20
2024-02-04T02:44:51.894Z,3.10
2024-02-04T02:47:20.769Z,3.10
2024-02-04T02:49:49.320Z,3.00
2024-02-04T02:52:17.698Z,3.00
2024-02-04T02:54:47.236Z,2.90
2024-02-04T02:57:15.575Z,2.90
2024-02-04T02:59:43.927Z,2.90
2024-02-04T03:02:12.384Z,2.80
2024-02-04T03:04:41.111Z,2.80
2024-02-04T03:07:09.335Z,2.80
2024-02-04T03:09:37.613Z,2.80
2024-02-04T03:12:08.154Z,2.80
2024-02-04T03:14:36.698Z,2.70
2024-02-04T03:17:04.989Z,2.70
2024-02-04T03:19:33.481Z,2.70
2024-02-04T03:22:01.697Z,2.70
2024-02-04T03:24:29.969Z,2.70
2024-02-04T03:26:58.422Z,2.70
2024-02-04T03:29:27.957Z,2.80
2024-02-04T03:31:57.844Z,2.80
2024-02-04T03:34:27.017Z,2.90
2024-02-04T03:36:56.132Z,3.00
2024-02-04T03:39:24.451Z,3.10
2024-02-04T03:41:52.633Z,3.20
2024-02-04T03:44:21.433Z,3.20
2024-02-04T03:46:51.690Z,3.30
2024-02-04T03:49:20.157Z,3.30
2024-02-04T03:51:48.784Z,3.30
2024-02-04T03:54:17.081Z,3.30
2024-02-04T03:56:45.164Z,3.30
2024-02-04T03:59:13.539Z,3.30
2024-02-04T04:01:41.810Z,3.30
2024-02-04T04:04:11.472Z,3.40
2024-02-04T04:06:39.763Z,3.40
2024-02-04T04:09:07.864Z,3.30
2024-02-04T04:11:35.976Z,3.30
2024-02-04T04:14:04.060Z,3.30
2024-02-04T04:16:32.182Z,3.20
2024-02-04T04:19:00.596Z,3.20
2024-02-04T04:21:30.176Z,3.30
2024-02-04T04:23:58.323Z,3.20
2024-02-04T04:26:26.610Z,3.30
2024-02-04T04:28:54.833Z,3.30
2024-02-04T04:31:22.911Z,3.30
2024-02-04T04:33:51.138Z,3.30
2024-02-04T04:36:19.298Z,3.30
2024-02-04T04:38:51.117Z,3.30
2024-02-04T04:41:19.402Z,3.30
2024-02-04T04:43:47.562Z,3.20
2024-02-04T04:46:15.817Z,3.20
2024-02-04T04:48:44.109Z,3.20
2024-02-04T04:51:13.554Z,3.20
2024-02-04T04:53:41.823Z,3.20
2024-02-04T04:56:11.324Z,3.20
2024-02-04T04:58:39.406Z,3.20
2024-02-04T05:01:07.629Z,3.30
2024-02-04T05:03:35.810Z,3.30
2024-02-04T05:06:04.066Z,3.30
2024-02-04T05:08:32.123Z,3.30
2024-02-04T05:11:00.231Z,3.40
2024-02-04T05:13:29.729Z,3.30
2024-02-04T05:15:57.907Z,3.40
2024-02-04T05:18:28.184Z,3.30
2024-02-04T05:20:57.273Z,3.30
2024-02-04T05:23:25.694Z,3.30
2024-02-04T05:25:53.818Z,3.30
2024-02-04T05:28:21.928Z,3.30
2024-02-04T05:30:51.531Z,3.20
2024-02-04T05:33:19.731Z,3.30
2024-02-04T05:35:47.898Z,3.20
2024-02-04T05:38:15.964Z,3.20
2024-02-04T05:40:44.115Z,3.20
2024-02-04T05:43:13.377Z,3.20
2024-02-04T05:45:42.794Z,3.30
2024-02-04T05:48:12.921Z,3.20
2024-02-04T05:50:41.364Z,3.30
2024-02-04T05:53:09.542Z,3.30
2024-02-04T05:55:37.712Z,3.30
2024-02-04T05:58:06.032Z,3.30
2024-02-04T06:00:34.930Z,3.30
2024-02-04T06:03:03.091Z,3.30
2024-02-04T06:05:32.649Z,3.40
2024-02-04T06:08:00.824Z,3.40
2024-02-04T06:10:28.972Z,3.50
2024-02-04T06:12:57.083Z,3.50
2024-02-04T06:15:26.073Z,3.50
2024-02-04T06:17:54.269Z,3.50
2024-02-04T06:20:22.441Z,3.50
2024-02-04T06:22:51.918Z,3.60
2024-02-04T06:25:20.189Z,3.60
2024-02-04T06:27:48.410Z,3.60
2024-02-04T06:30:17.635Z,3.60
2024-02-04T06:32:45.801Z,3.60
2024-02-04T06:35:14.285Z,3.60
2024-02-04T06:37:43.789Z,3.50
2024-02-04T06:40:14.485Z,3.50
2024-02-04T06:42:42.645Z,3.50
2024-02-04T06:45:11.704Z,3.50
2024-02-04T06:47:39.857Z,3.50
2024-02-04T06:50:10.945Z,3.50
2024-02-04T06:52:39.123Z,3.50
2024-02-04T06:55:08.015Z,3.50
2024-02-04T06:57:37.625Z,3.50
2024-02-04T07:00:07.016Z,3.50
2024-02-04T07:02:35.370Z,3.50
2024-02-04T07:05:03.453Z,3.40
2024-02-04T07:07:31.598Z,3.40
2024-02-04T07:10:00.337Z,3.40
2024-02-04T07:12:28.581Z,3.40
2024-02-04T07:14:58.019Z,3.30
2024-02-04T07:17:26.279Z,3.30
2024-02-04T07:19:54.470Z,3.30
2024-02-04T07:22:22.704Z,3.40
2024-02-04T07:24:50.816Z,3.40
2024-02-04T07:27:18.966Z,3.30
2024-02-04T07:29:48.187Z,3.40
2024-02-04T07:32:17.819Z,3.40
2024-02-04T07:34:45.936Z,3.40
2024-02-04T07:37:14.232Z,3.50
2024-02-04T07:39:42.346Z,3.50
2024-02-04T07:42:10.442Z,3.50
2024-02-04T07:44:38.488Z,3.50
2024-02-04T07:47:07.010Z,3.60
2024-02-04T07:49:36.532Z,3.50
2024-02-04T07:52:05.448Z,3.60
2024-02-04T07:54:33.754Z,3.60
2024-02-04T07:57:02.070Z,3.60
2024-02-04T07:59:30.123Z,3.60
2024-02-04T08:01:58.277Z,3.60
2024-02-04T08:04:26.515Z,3.60
2024-02-04T08:06:56.529Z,3.60
2024-02-04T08:09:24.706Z,3.60
2024-02-04T08:11:52.834Z,3.60
2024-02-04T08:14:21.036Z,3.60
2024-02-04T08:16:49.610Z,3.60
2024-02-04T08:19:17.846Z,3.60
2024-02-04T08:21:45.976Z,3.60
2024-02-04T08:24:15.605Z,3.60
2024-02-04T08:26:44.508Z,3.60
2024-02-04T08:29:12.625Z,3.60
2024-02-04T08:31:40.728Z,3.60
2024-02-04T08:34:09.095Z,3.60
2024-02-04T08:36:37.249Z,3.60
2024-02-04T08:39:05.588Z,3.60
2024-02-04T08:41:35.090Z,3.60
2024-02-04T08:44:04.542Z,3.60
2024-02-04T08:46:32.790Z,3.60
2024-02-04T08:49:00.962Z,3.60
2024-02-04T08:51:31.678Z,3.60
2024-02-04T08:54:00.131Z,3.70
2024-02-04T08:56:28.260Z,3.70
2024-02-04T08:58:57.738Z,3.80
2024-02-04T09:01:26.037Z,3.80
2024-02-04T09:03:54.312Z,3.90
2024-02-04T09:06:22.765Z,3.90
2024-02-04T09:08:50.938Z,3.90
2024-02-04T09:11:21.835Z,3.90
2024-02-04T09:13:50.192Z,4.00
2024-02-04T09:16:19.794Z,4.00
2024-02-04T09:18:48.429Z,4.00
2024-02-04T09:21:16.782Z,3.90
2024-02-04T09:23:44.948Z,4.00
2024-02-04T09:26:14.026Z,4.00
2024-02-04T09:28:44.318Z,4.00
2024-02-04T09:31:12.606Z,4.00
2024-02-04T09:33:42.861Z,4.00
2024-02-04T09:36:11.409Z,4.10
2024-02-04T09:38:39.793Z,4.10
2024-02-04T09:41:08.085Z,4.10
2024-02-04T09:43:39.086Z,4.10
2024-02-04T09:46:08.201Z,4.10
2024-02-04T09:48:37.147Z,4.10
2024-02-04T09:51:08.750Z,4.10
2024-02-04T09:53:38.541Z,4.10
2024-02-04T09:56:09.388Z,4.10
2024-02-04T09:58:37.883Z,4.20
2024-02-04T10:01:09.913Z,4.20
2024-02-04T10:03:38.362Z,4.20
2024-02-04T10:06:08.522Z,4.20
2024-02-04T10:08:38.634Z,4.30
2024-02-04T10:11:07.053Z,4.30
2024-02-04T10:13:46.028Z,4.30
2024-02-04T10:16:14.372Z,4.20
2024-02-04T10:18:44.593Z,4.30
2024-02-04T10:21:21.431Z,4.30
2024-02-04T10:23:49.991Z,4.20
2024-02-04T10:26:18.891Z,4.30
2024-02-04T10:28:48.814Z,4.30
2024-02-04T10:31:17.599Z,4.30
2024-02-04T10:33:46.584Z,4.30
2024-02-04T10:36:14.962Z,4.30
2024-02-04T10:38:44.364Z,4.30
2024-02-04T10:41:16.961Z,4.30
2024-02-04T10:43:46.162Z,4.30
2024-02-04T10:46:19.272Z,4.20
2024-02-04T10:48:52.091Z,4.20
2024-02-04T10:51:24.149Z,4.20
2024-02-04T10:53:56.031Z,4.20
2024-02-04T10:56:31.784Z,4.20
2024-02-04T10:59:01.680Z,4.20
2024-02-04T11:01:30.056Z,4.10
2024-02-04T11:04:00.813Z,4.20
2024-02-04T11:06:30.591Z,4.20
2024-02-04T11:09:01.730Z,4.20
2024-02-04T11:11:30.599Z,4.20
2024-02-04T11:14:06.328Z,4.20
2024-02-04T11:16:57.025Z,4.20
2024-02-04T11:19:37.942Z,4.30
2024-02-04T11:22:20.716Z,4.30
2024-02-04T11:25:21.302Z,4.30
2024-02-04T11:27:49.813Z,4.30
2024-02-04T11:30:18.109Z,4.40
2024-02-04T11:32:47.482Z,4.40
2024-02-04T11:35:16.934Z,4.30
2024-02-04T11:37:46.695Z,4.30
2024-02-04T11:40:20.257Z,4.30
2024-02-04T11:42:48.915Z,4.30
2024-02-04T11:45:18.338Z,4.30
2024-02-04T11:47:46.629Z,4.40
2024-02-04T11:50:15.147Z,4.50
2024-02-04T11:52:43.822Z,4.50
2024-02-04T11:55:17.903Z,4.40
2024-02-04T11:57:46.989Z,4.40
2024-02-04T12:00:17.607Z,4.40
2024-02-04T12:02:45.721Z,4.40
2024-02-04T12:05:15.209Z,4.30
2024-02-04T12:07:44.906Z,4.30
2024-02-04T12:10:14.163Z,4.40
2024-02-04T12:12:43.732Z,4.30
2024-02-04T12:15:12.905Z,4.30
2024-02-04T12:17:41.151Z,4.30
2024-02-04T12:20:10.188Z,4.20
2024-02-04T12:22:38.690Z,4.20
2024-02-04T12:25:08.967Z,4.30
2024-02-04T12:27:37.484Z,4.30
2024-02-04T12:30:08.730Z,4.30
2024-02-04T12:32:38.102Z,4.30
2024-02-04T12:35:10.394Z,4.30
2024-02-04T12:37:38.476Z,4.20
2024-02-04T12:40:07.720Z,4.20
2024-02-04T12:42:36.015Z,4.20
2024-02-04T12:45:04.363Z,4.20
2024-02-04T12:47:33.960Z,4.20
2024-02-04T12:50:03.954Z,4.20
2024-02-04T12:52:35.507Z,4.20
2024-02-04T12:55:03.728Z,4.20
2024-02-04T12:57:32.290Z,4.10
2024-02-04T13:00:07.897Z,4.10
2024-02-04T13:02:37.438Z,4.10
2024-02-04T13:05:06.090Z,4.10
2024-02-04T13:07:34.361Z,4.10
2024-02-04T13:10:02.891Z,4.10
2024-02-04T13:12:34.098Z,4.00
2024-02-04T13:15:02.394Z,4.00
2024-02-04T13:17:30.491Z,4.10
2024-02-04T13:20:00.429Z,4.10
2024-02-04T13:22:28.845Z,4.00
2024-02-04T13:24:56.905Z,4.00
2024-02-04T13:27:25.108Z,4.10
2024-02-04T13:29:53.323Z,4.00
2024-02-04T13:32:21.477Z,4.00
2024-02-04T13:34:50.845Z,4.00
2024-02-04T13:37:22.169Z,4.10
2024-02-04T13:39:50.269Z,4.00
2024-02-04T13:42:18.372Z,4.00
2024-02-04T13:44:46.629Z,4.00
2024-02-04T13:47:14.781Z,4.00
2024-02-04T13:49:42.912Z,4.00
2024-02-04T13:52:11.308Z,4.00
2024-02-04T13:54:40.875Z,4.00
2024-02-04T13:57:09.018Z,4.10
2024-02-04T13:59:37.193Z,4.10
2024-02-04T14:02:06.332Z,4.10
2024-02-04T14:04:34.826Z,4.10
2024-02-04T14:07:03.094Z,4.10
2024-02-04T14:09:31.402Z,4.10
2024-02-04T14:12:00.852Z,4.10
2024-02-04T14:14:28.927Z,4.10
2024-02-04T14:16:57.094Z,4.10
2024-02-04T14:19:25.387Z,4.10
2024-02-04T14:21:53.570Z,4.10
2024-02-04T14:24:21.744Z,4.10
2024-02-04T14:26:49.906Z,4.10
2024-02-04T14:29:19.409Z,4.10
2024-02-04T14:31:47.690Z,4.10
2024-02-04T14:34:16.199Z,4.10
2024-02-04T14:36:44.376Z,4.10
2024-02-04T14:39:12.564Z,4.00
2024-02-04T14:41:40.706Z,4.00
2024-02-04T14:44:08.820Z,4.00
2024-02-04T14:46:40.025Z,4.00
2024-02-04T14:49:08.531Z,4.00
2024-02-04T14:51:40.255Z,4.00
2024-02-04T14:54:10.084Z,4.00
2024-02-04T14:56:41.343Z,4.00
2024-02-04T14:59:20.783Z,4.00
2024-02-04T15:01:52.586Z,4.00
2024-02-04T15:04:21.310Z,4.00
2024-02-04T15:06:49.777Z,4.00
2024-02-04T15:09:17.972Z,4.00
2024-02-04T15:11:46.580Z,4.00
2024-02-04T15:14:15.163Z,4.00
2024-02-04T15:16:43.872Z,3.90
2024-02-04T15:19:14.116Z,3.90
2024-02-04T15:21:42.759Z,3.90
2024-02-04T15:24:12.194Z,3.90
2024-02-04T15:26:41.603Z,3.90
2024-02-04T15:29:11.165Z,3.90
2024-02-04T15:31:40.045Z,3.90
2024-02-04T15:34:09.045Z,3.90
2024-02-04T15:36:38.652Z,3.90
2024-02-04T15:39:07.034Z,3.90
2024-02-04T15:41:35.158Z,3.90
2024-02-04T15:44:03.251Z,3.90
2024-02-04T15:46:33.022Z,3.90
2024-02-04T15:49:05.303Z,3.90
2024-02-04T15:51:34.676Z,3.80
2024-02-04T15:54:04.815Z,3.80
2024-02-04T15:56:36.132Z,3.80
2024-02-04T15:59:11.293Z,3.90
2024-02-04T16:01:42.474Z,3.80
2024-02-04T16:04:11.907Z,3.80
2024-02-04T16:06:40.957Z,3.80
2024-02-04T16:09:11.198Z,3.70
2024-02-04T16:11:48.422Z,3.80
2024-02-04T16:14:16.898Z,3.70
2024-02-04T16:16:47.224Z,3.80
2024-02-04T16:19:17.209Z,3.70
2024-02-04T16:21:45.696Z,3.70
2024-02-04T16:24:15.148Z,3.70
2024-02-04T16:26:43.336Z,3.80
2024-02-04T16:29:11.374Z,3.80
2024-02-04T16:31:39.470Z,3.80
2024-02-04T16:34:07.672Z,3.80
2024-02-04T16:36:35.907Z,3.80
2024-02-04T16:39:06.498Z,3.90
2024-02-04T16:41:36.228Z,3.90
2024-02-04T16:44:04.813Z,3.90
2024-02-04T16:46:32.920Z,3.90
2024-02-04T16:49:01.961Z,3.90
2024-02-04T16:51:30.271Z,3.90
2024-02-04T16:53:58.478Z,3.90
2024-02-04T16:56:26.610Z,3.90
2024-02-04T16:58:56.076Z,3.90
2024-02-04T17:01:25.701Z,3.90
2024-02-04T17:03:54.493Z,3.90
2024-02-04T17:06:23.890Z,4.00
2024-02-04T17:08:52.570Z,4.00
2024-02-04T17:11:22.154Z,4.00
2024-02-04T17:13:52.488Z,4.00
2024-02-04T17:16:31.369Z,4.00
2024-02-04T17:19:09.239Z,4.00
2024-02-04T17:21:41.588Z,4.00
2024-02-04T17:24:15.782Z,4.00
2024-02-04T17:26:44.393Z,4.00
2024-02-04T17:29:12.998Z,4.00
2024-02-04T17:31:43.256Z,4.00
2024-02-04T17:34:11.978Z,4.00
2024-02-04T17:36:41.106Z,4.10
2024-02-04T17:39:09.301Z,4.00
2024-02-04T17:41:37.371Z,4.00
2024-02-04T17:44:06.609Z,4.00
2024-02-04T17:46:34.911Z,4.00
2024-02-04T17:49:06.412Z,4.00
2024-02-04T17:51:34.759Z,4.00
2024-02-04T17:54:04.106Z,4.10
2024-02-04T17:56:34.533Z,4.10
2024-02-04T17:59:02.787Z,4.10
2024-02-04T18:01:30.954Z,4.10
2024-02-04T18:03:59.183Z,4.10
2024-02-04T18:06:28.963Z,4.10
2024-02-04T18:08:57.071Z,4.00
2024-02-04T18:11:26.481Z,4.00
2024-02-04T18:13:54.811Z,4.00
2024-02-04T18:16:25.367Z,4.00
2024-02-04T18:18:55.725Z,3.90
2024-02-04T18:21:24.869Z,3.90
2024-02-04T18:23:55.387Z,3.90
2024-02-04T18:26:25.549Z,3.90
2024-02-04T18:28:58.031Z,3.90
2024-02-04T18:31:30.233Z,3.90
2024-02-04T18:34:00.646Z,3.90
2024-02-04T18:36:29.368Z,3.80
2024-02-04T18:38:59.574Z,3.80
2024-02-04T18:41:27.987Z,3.80
2024-02-04T18:43:56.090Z,3.80
2024-02-04T18:46:25.208Z,3.80
2024-02-04T18:48:54.053Z,3.90
2024-02-04T18:51:22.264Z,3.90
2024-02-04T18:53:50.340Z,3.90
2024-02-04T18:56:20.245Z,3.90
2024-02-04T18:58:51.624Z,3.90
2024-02-04T19:01:23.655Z,3.90
2024-02-04T19:03:52.323Z,3.90
2024-02-04T19:06:27.208Z,3.90
2024-02-04T19:08:55.626Z,4.00
2024-02-04T19:11:25.776Z,4.00
2024-02-04T19:13:55.695Z,4.00
2024-02-04T19:16:24.601Z,3.90
2024-02-04T19:18:54.481Z,4.00
2024-02-04T19:21:23.069Z,4.00
2024-02-04T19:23:51.183Z,4.00
2024-02-04T19:26:19.398Z,3.90
2024-02-04T19:28:48.803Z,3.90
2024-02-04T19:31:17.068Z,3.80
2024-02-04T19:33:45.191Z,3.70
2024-02-04T19:36:13.335Z,3.80
2024-02-04T19:38:41.504Z,3.70
2024-02-04T19:41:09.601Z,3.70
2024-02-04T19:43:37.688Z,3.60
2024-02-04T19:46:07.838Z,3.60
2024-02-04T19:48:36.176Z,3.60
2024-02-04T19:51:05.061Z,3.60
2024-02-04T19:53:33.246Z,3.60
2024-02-04T19:56:01.416Z,3.50
2024-02-04T19:58:29.604Z,3.50
2024-02-04T20:00:58.029Z,3.50
2024-02-04T20:03:27.582Z,3.50
2024-02-04T20:05:55.645Z,3.50
2024-02-04T20:08:23.816Z,3.50
2024-02-04T20:10:51.891Z,3.50
2024-02-04T20:13:21.016Z,3.50
2024-02-04T20:15:49.213Z,3.60
2024-02-04T20:18:17.374Z,3.70
2024-02-04T20:20:46.845Z,3.70
2024-02-04T20:23:15.037Z,3.60
2024-02-04T20:25:44.472Z,3.60
2024-02-04T20:28:13.125Z,3.60
2024-02-04T20:30:41.609Z,3.60
2024-02-04T20:33:09.953Z,3.60
2024-02-04T20:35:38.105Z,3.60
2024-02-04T20:38:07.754Z,3.60
2024-02-04T20:40:36.023Z,3.60
2024-02-04T20:43:04.949Z,3.70
2024-02-04T20:45:33.281Z,3.70
2024-02-04T20:48:01.856Z,3.60
2024-02-04T20:50:30.009Z,3.60
2024-02-04T20:53:00.269Z,3.60
2024-02-04T20:55:29.927Z,3.60
2024-02-04T20:57:58.525Z,3.50
2024-02-04T21:00:26.715Z,3.50
2024-02-04T21:02:55.279Z,3.60
2024-02-04T21:05:23.504Z,3.60
2024-02-04T21:07:51.715Z,3.50
2024-02-04T21:10:20.181Z,3.50
2024-02-04T21:12:49.751Z,3.50
2024-02-04T21:15:19.841Z,3.50
2024-02-04T21:17:48.059Z,3.50
2024-02-04T21:20:16.402Z,3.40
2024-02-04T21:22:46.446Z,3.40
2024-02-04T21:25:15.030Z,3.40
2024-02-04T21:27:43.301Z,3.40
2024-02-04T21:30:13.142Z,3.40
2024-02-04T21:32:41.454Z,3.30
2024-02-04T21:35:11.080Z,3.30
2024-02-04T21:37:40.572Z,3.30
2024-02-04T21:40:10.800Z,3.40
2024-02-04T21:42:39.936Z,3.40
2024-02-04T21:45:09.042Z,3.40
2024-02-04T21:47:38.596Z,3.40
2024-02-04T21:50:09.760Z,3.40
2024-02-04T21:52:37.901Z,3.40
2024-02-04T21:55:06.482Z,3.40
2024-02-04T21:57:34.653Z,3.40
2024-02-04T22:00:02.805Z,3.40
2024-02-04T22:02:33.278Z,3.30
2024-02-04T22:05:02.911Z,3.30
2024-02-04T22:07:31.474Z,3.40
2024-02-04T22:09:59.719Z,3.40
2024-02-04T22:12:27.820Z,3.30
2024-02-04T22:14:57.937Z,3.30
2024-02-04T22:17:30.572Z,3.30
2024-02-04T22:19:58.886Z,3.30
2024-02-04T22:22:28.408Z,3.30
2024-02-04T22:24:56.605Z,3.20
2024-02-04T22:27:24.778Z,3.20
2024-02-04T22:29:54.460Z,3.20
2024-02-04T22:32:22.762Z,3.20
2024-02-04T22:34:51.044Z,3.20
2024-02-04T22:37:19.270Z,3.30
2024-02-04T22:39:48.790Z,3.30
2024-02-04T22:42:17.143Z,3.20
2024-02-04T22:44:45.195Z,3.30
2024-02-04T22:47:14.058Z,3.40
2024-02-04T22:49:42.243Z,3.40
2024-02-04T22:52:10.521Z,3.30
2024-02-04T22:54:39.955Z,3.40
2024-02-04T22:57:09.876Z,3.40
2024-02-04T22:59:37.959Z,3.40
2024-02-04T23:02:07.924Z,3.40
2024-02-04T23:04:37.576Z,3.40
2024-02-04T23:07:07.094Z,3.40
2024-02-04T23:09:35.439Z,3.40
2024-02-04T23:12:03.536Z,3.50
2024-02-04T23:14:33.013Z,3.40
2024-02-04T23:17:01.180Z,3.50
2024-02-04T23:19:29.369Z,3.40
2024-02-04T23:21:57.736Z,3.40
2024-02-04T23:24:26.512Z,3.40
2024-02-04T23:26:54.677Z,3.30
2024-02-04T23:29:22.803Z,3.30
2024-02-04T23:31:52.209Z,3.20
2024-02-04T23:34:20.361Z,3.20
2024-02-04T23:36:48.480Z,3.00
2024-02-04T23:39:19.806Z,3.00
2024-02-04T23:41:48.112Z,3.00
2024-02-04T23:44:16.350Z,2.90
2024-02-04T23:46:44.476Z,2.90
2024-02-04T23:49:14.290Z,2.80
2024-02-04T23:51:42.530Z,2.80
2024-02-04T23:54:10.605Z,2.80
2024-02-04T23:56:38.720Z,2.80
2024-02-04T23:59:06.939Z,2.80
